We Are Winnipeg.

Screenshot by Nate Power

Come explore the heart of Canada.  


  Upcoming Events

Great Lakes FNO  July 29, 2022 23:00z
Labour Day Classic  September 3, 2022 20:00z

  Top Controllers this Month

No data yet.

  Online Controllers

No controllers online.

  Weather

CYWG - Winnipeg / James Armstrong Richardson International Airport   VFR
CYWG 010100Z 36005KT 15SM FEW077 19/05 A2989 RMK AC1 AC TR SLP127 DENSITY ALT 1500FT

CYXE - Saskatoon John G. Diefenbaker International Airport   VFR
CYXE 010100Z 31013G18KT 15SM FEW060 SCT300 21/07 A2997 RMK CU2CI1 SLP157 DENSITY ALT 2800FT

CYQT - Thunder Bay Airport   VFR
CYQT 010100Z 30013KT 20SM FEW080 22/13 A2969 RMK AC2 SLP058 DENSITY ALT 2000FT

CYQR - Regina International Airport   VFR
CYQR 010100Z 33016G22KT 15SM FEW065 21/06 A3000 RMK CU1 SLP166 DENSITY ALT 3000FT

CYMJ - Moose Jaw Air Vice Marshal C. M. McEwen Airport   VFR
CYMJ 010105Z 32011G18KT 15SM FEW070 22/05 A3001 RMK CU1 LAST OBS /NEXT 051000 UTC SLP163

CYPG - Portage-la-Prairie / Southport Airport   VFR OUTDATED
CYPG 302100Z 35011G19KT 15SM FEW050 FEW250 20/06 A2989 RMK CU1CI1 DENSITY ALT 1812FT SLP120